createdAt,value
2018-01-14T13:01:32.191Z,77.45
2018-01-14T13:03:32.191Z,72.22
2018-01-14T13:04:32.194Z,71.31
2018-01-14T13:05:32.193Z,70.26
2018-01-14T13:06:32.224Z,68.84
2018-01-14T13:07:32.212Z,69.12
2018-01-14T13:08:32.237Z,68.71
2018-01-14T13:09:32.226Z,68.80
2018-01-14T13:10:32.235Z,68.80
2018-01-14T13:11:32.242Z,67.76
2018-01-14T13:12:32.252Z,70.70
2018-01-14T13:13:32.339Z,70.70
2018-01-14T13:15:32.269Z,71.69
2018-01-14T13:16:32.281Z,68.52
2018-01-14T13:17:32.292Z,69.56
2018-01-14T13:18:32.288Z,69.56
2018-01-14T13:19:32.312Z,70.42
2018-01-14T13:20:32.306Z,71.27
2018-01-14T13:21:32.322Z,68.99
2018-01-14T13:22:32.322Z,68.42
2018-01-14T13:23:32.330Z,72.03
2018-01-14T13:24:32.349Z,69.56
2018-01-14T13:25:32.343Z,70.32
2018-01-14T13:26:32.345Z,69.94
2018-01-14T13:27:32.358Z,70.23
2018-01-14T13:28:32.373Z,68.61
2018-01-14T13:29:32.366Z,68.96
2018-01-14T13:30:32.381Z,70.76
2018-01-14T13:31:32.381Z,71.62
2018-01-14T13:32:32.390Z,71.90
2018-01-14T13:33:32.396Z,73.18
2018-01-14T13:34:32.405Z,74.31
2018-01-14T13:35:32.416Z,72.32
2018-01-14T13:36:32.490Z,71.02
2018-01-14T13:37:32.425Z,70.26
2018-01-14T13:38:32.432Z,68.93
2018-01-14T13:39:32.438Z,68.71
2018-01-14T13:40:32.448Z,69.56
2018-01-14T13:41:32.454Z,68.33
2018-01-14T13:42:32.461Z,70.89
2018-01-14T13:43:32.472Z,71.56
2018-01-14T13:44:32.472Z,70.32
2018-01-14T13:45:32.485Z,69.75
2018-01-14T13:46:32.496Z,70.64
2018-01-14T13:47:32.492Z,67.98
2018-01-14T13:48:32.500Z,67.09
2018-01-14T13:49:32.511Z,68.33
2018-01-14T13:50:32.562Z,68.71
2018-01-14T13:51:32.521Z,69.56
2018-01-14T13:52:32.525Z,68.29
2018-01-14T13:53:32.531Z,70.10
2018-01-14T13:54:32.550Z,69.53
2018-01-14T13:55:32.554Z,69.71
2018-01-14T13:56:32.551Z,68.77
2018-01-14T13:57:32.564Z,70.10
2018-01-14T13:58:32.564Z,68.86
2018-01-14T13:59:32.640Z,70.57
2018-01-14T14:00:32.592Z,70.00
2018-01-14T14:01:32.592Z,69.71
2018-01-14T14:02:32.601Z,69.53
2018-01-14T14:03:32.606Z,70.48
2018-01-14T14:04:32.619Z,68.77
2018-01-14T14:05:32.616Z,68.44
2018-01-14T14:06:32.619Z,69.59
2018-01-14T14:07:32.628Z,70.57
2018-01-14T14:08:32.641Z,68.29
2018-01-14T14:09:32.652Z,68.29
2018-01-14T14:10:32.646Z,69.15
2018-01-14T14:11:32.646Z,68.86
2018-01-14T14:12:32.663Z,68.48
2018-01-14T14:13:32.673Z,68.48
2018-01-14T14:14:32.789Z,67.82
2018-01-14T14:15:32.675Z,67.97
2018-01-14T14:16:32.698Z,69.43
2018-01-14T14:17:32.694Z,68.58
2018-01-14T14:18:32.704Z,67.82
2018-01-14T14:19:32.702Z,67.69
2018-01-14T14:20:32.710Z,67.31
2018-01-14T14:21:32.718Z,68.07
2018-01-14T14:22:32.729Z,68.73
2018-01-14T14:23:32.734Z,68.92
2018-01-14T14:24:32.739Z,68.29
2018-01-14T14:25:32.735Z,67.88
2018-01-14T14:26:32.749Z,68.01
2018-01-14T14:27:32.766Z,66.46
2018-01-14T14:28:32.762Z,63.17
2018-01-14T14:29:32.771Z,60.37
2018-01-14T14:30:32.777Z,57.35
2018-01-14T14:31:32.784Z,56.33
2018-01-14T14:32:32.792Z,54.90
2018-01-14T14:33:32.789Z,53.00
2018-01-14T14:34:32.805Z,53.66
2018-01-14T14:35:32.811Z,53.66
2018-01-14T14:36:32.877Z,53.25
2018-01-14T14:37:32.934Z,53.73
2018-01-14T14:38:32.846Z,54.30
2018-01-14T14:39:32.845Z,53.25
2018-01-14T14:40:32.867Z,53.06
2018-01-14T14:41:32.878Z,53.80
2018-01-14T14:42:32.874Z,55.01
2018-01-14T14:43:32.880Z,55.39
2018-01-14T14:44:32.886Z,55.96
2018-01-14T14:45:32.893Z,56.34
2018-01-14T14:46:32.899Z,55.96
2018-01-14T14:47:32.925Z,56.15
2018-01-14T14:48:32.931Z,55.83
2018-01-14T14:49:32.939Z,56.70
2018-01-14T14:50:32.961Z,57.01
2018-01-14T14:51:32.953Z,57.01
2018-01-14T14:52:32.968Z,56.24
2018-01-14T14:53:32.969Z,55.80
2018-01-14T14:54:32.982Z,55.87
2018-01-14T14:55:33.003Z,56.24
2018-01-14T14:56:33.016Z,55.77
2018-01-14T14:57:33.013Z,56.88
2018-01-14T14:58:33.065Z,57.17
2018-01-14T14:59:33.023Z,57.07
2018-01-14T15:00:33.043Z,57.36
2018-01-14T15:01:33.048Z,57.93
2018-01-14T15:02:33.055Z,58.69
2018-01-14T15:03:33.058Z,58.22
2018-01-14T15:04:33.076Z,57.67
2018-01-14T15:05:33.077Z,57.58
2018-01-14T15:06:33.089Z,57.29
2018-01-14T15:07:33.093Z,57.20
2018-01-14T15:08:33.105Z,56.63
2018-01-14T15:09:33.312Z,57.26
2018-01-14T15:10:33.124Z,58.40
2018-01-14T15:11:33.132Z,58.79
2018-01-14T15:12:33.148Z,58.03
2018-01-14T15:13:33.160Z,58.50
2018-01-14T15:14:33.165Z,59.17
2018-01-14T15:15:33.187Z,59.64
2018-01-14T15:16:33.186Z,59.64
2018-01-14T15:17:33.187Z,60.21
2018-01-14T15:18:33.201Z,60.66
2018-01-14T15:19:33.210Z,60.94
2018-01-14T15:20:33.230Z,61.71
2018-01-14T15:21:33.232Z,62.75
2018-01-14T15:22:33.313Z,62.62
2018-01-14T15:23:33.237Z,63.20
2018-01-14T15:24:33.258Z,63.29
2018-01-14T15:25:33.252Z,64.30
2018-01-14T15:26:33.269Z,65.16
2018-01-14T15:27:33.282Z,66.20
2018-01-14T15:28:33.298Z,67.40
2018-01-14T15:29:33.292Z,67.88
2018-01-14T15:30:33.299Z,68.35
2018-01-14T15:31:33.318Z,69.21
2018-01-14T15:32:33.320Z,69.17
2018-01-14T15:33:33.328Z,70.31
2018-01-14T15:34:33.336Z,70.59
2018-01-14T15:35:33.341Z,71.36
2018-01-14T15:36:33.350Z,71.92
2018-01-14T15:37:33.349Z,71.83
2018-01-14T15:38:33.371Z,72.59
2018-01-14T15:39:33.372Z,72.30
2018-01-14T15:40:33.378Z,73.03
2018-01-14T15:41:33.384Z,73.12
2018-01-14T15:42:33.384Z,72.55
2018-01-14T15:43:33.442Z,73.03
2018-01-14T15:44:33.407Z,72.93
2018-01-14T15:45:33.413Z,72.84
2018-01-14T15:47:33.426Z,73.88
2018-01-14T15:48:33.480Z,73.69
2018-01-14T15:49:33.442Z,74.73
2018-01-14T15:50:33.444Z,75.11
2018-01-14T15:51:33.454Z,75.02
2018-01-14T15:52:33.461Z,75.40
2018-01-14T15:53:33.462Z,75.31
2018-01-14T15:54:33.471Z,75.11
2018-01-14T15:55:33.474Z,75.59
2018-01-14T15:56:33.487Z,75.96
2018-01-14T15:57:33.492Z,76.06
2018-01-14T15:58:33.510Z,76.25
2018-01-14T15:59:33.502Z,76.25
2018-01-14T16:00:33.510Z,76.82
2018-01-14T16:01:33.521Z,76.34
2018-01-14T16:02:33.526Z,76.82
2018-01-14T16:03:33.526Z,77.29
2018-01-14T16:04:33.529Z,77.16
2018-01-14T16:05:33.551Z,77.39
2018-01-14T16:06:33.551Z,77.20
2018-01-14T16:07:33.554Z,77.01
2018-01-14T16:08:33.561Z,77.01
2018-01-14T16:10:33.587Z,77.54
2018-01-14T16:11:33.583Z,77.25
2018-01-14T16:12:33.589Z,77.06
2018-01-14T16:13:33.589Z,76.87
2018-01-14T16:14:33.599Z,76.78
2018-01-14T16:15:33.607Z,76.87
2018-01-14T16:16:33.689Z,76.97
2018-01-14T16:17:33.619Z,76.97
2018-01-14T16:18:33.618Z,77.06
2018-01-14T16:19:33.628Z,76.87
2018-01-14T16:20:33.635Z,77.06
2018-01-14T16:21:33.641Z,76.68
2018-01-14T16:22:33.647Z,77.06
2018-01-14T16:23:33.660Z,77.06
2018-01-14T16:24:33.665Z,76.87
2018-01-14T16:25:33.667Z,77.16
2018-01-14T16:26:33.670Z,77.64
2018-01-14T16:27:33.679Z,77.54
2018-01-14T16:28:33.681Z,77.92
2018-01-14T16:29:33.687Z,78.02
2018-01-14T16:30:33.703Z,78.02
2018-01-14T16:31:33.701Z,78.39
2018-01-14T16:32:33.697Z,78.49
2018-01-14T16:33:33.712Z,78.39
2018-01-14T16:34:33.716Z,78.49
2018-01-14T16:35:33.722Z,78.58
2018-01-14T16:37:33.735Z,78.87
2018-01-14T16:38:33.736Z,78.87
2018-01-14T16:39:33.745Z,78.87
2018-01-14T16:40:33.745Z,79.15
2018-01-14T16:41:33.795Z,79.72
2018-01-14T16:42:33.758Z,79.63
2018-01-14T16:43:33.763Z,79.44
2018-01-14T16:44:33.802Z,80.10
2018-01-14T16:45:33.785Z,79.91
2018-01-14T16:46:33.791Z,79.72
2018-01-14T16:47:33.786Z,79.91
2018-01-14T16:48:33.787Z,80.38
2018-01-14T16:49:33.797Z,80.00
2018-01-14T16:50:33.810Z,80.10
2018-01-14T16:51:33.810Z,79.63
2018-01-14T16:52:33.812Z,79.63
2018-01-14T16:53:33.818Z,79.53
2018-01-14T16:54:33.815Z,79.72
2018-01-14T16:55:33.879Z,79.53
2018-01-14T16:56:33.835Z,79.96
2018-01-14T16:57:33.843Z,79.68
2018-01-14T16:58:33.845Z,80.34
2018-01-14T16:59:33.855Z,79.77
2018-01-14T17:00:33.858Z,80.44
2018-01-14T17:01:33.861Z,80.34
2018-01-14T17:02:33.880Z,80.34
2018-01-14T17:03:33.900Z,80.06
2018-01-14T17:04:33.876Z,80.82
2018-01-14T17:05:33.872Z,80.34
2018-01-14T17:06:33.887Z,81.01
2018-01-14T17:07:33.950Z,81.10
2018-01-14T17:08:33.896Z,81.29
2018-01-14T17:09:33.931Z,81.10
2018-01-14T17:10:33.907Z,81.38
2018-01-14T17:11:33.917Z,81.20
2018-01-14T17:12:33.922Z,81.57
2018-01-14T17:13:33.924Z,81.67
2018-01-14T17:14:33.930Z,81.57
2018-01-14T17:15:33.927Z,82.43
2018-01-14T17:16:33.941Z,82.14
2018-01-14T17:17:33.941Z,81.95
2018-01-14T17:18:33.953Z,82.14
2018-01-14T17:19:33.958Z,81.95
2018-01-14T17:20:33.980Z,82.62
2018-01-14T17:21:33.974Z,82.62
2018-01-14T17:22:33.971Z,82.62
2018-01-14T17:23:33.971Z,82.90
2018-01-14T17:24:33.979Z,83.09
2018-01-14T17:25:33.988Z,83.00
2018-01-14T17:26:33.991Z,83.28
2018-01-14T17:27:34.008Z,83.66
2018-01-14T17:28:34.014Z,83.37
2018-01-14T17:29:33.990Z,83.37
2018-01-14T17:30:33.999Z,83.56
2018-01-14T17:31:34.011Z,83.66
2018-01-14T17:32:34.021Z,83.81
2018-01-14T17:33:34.032Z,84.38
2018-01-14T17:34:34.029Z,84.47
2018-01-14T17:35:34.781Z,84.66
2018-01-14T17:36:34.036Z,85.51
2018-01-14T17:37:34.041Z,85.32
2018-01-14T17:38:34.052Z,85.42
2018-01-14T17:39:34.046Z,85.61
2018-01-14T17:40:34.049Z,85.61
2018-01-14T17:41:34.062Z,85.32
2018-01-14T17:42:34.073Z,86.08
2018-01-14T17:44:34.077Z,86.08
2018-01-14T17:45:34.077Z,85.70
2018-01-14T17:46:34.084Z,85.51
2018-01-14T17:47:34.084Z,86.55
2018-01-14T17:48:34.149Z,86.55
2018-01-14T17:49:34.105Z,86.74
2018-01-14T17:50:34.111Z,85.89
2018-01-14T17:51:34.104Z,85.70
2018-01-14T17:52:34.128Z,86.08
2018-01-14T17:53:34.110Z,86.65
2018-01-14T17:54:34.136Z,86.27
2018-01-14T17:56:34.133Z,86.65
2018-01-14T17:57:34.142Z,86.55
2018-01-14T17:58:34.140Z,86.65
2018-01-14T17:59:34.152Z,86.74
2018-01-14T18:00:34.149Z,87.40
2018-01-14T18:01:34.155Z,87.69
2018-01-14T18:02:34.166Z,87.50
2018-01-14T18:03:34.157Z,87.21
2018-01-14T18:04:34.168Z,87.31
2018-01-14T18:05:34.172Z,87.31
2018-01-14T18:06:34.179Z,87.40
2018-01-14T18:07:34.173Z,87.50
2018-01-14T18:08:34.185Z,87.40
2018-01-14T18:09:34.186Z,87.40
2018-01-14T18:10:34.223Z,87.88
2018-01-14T18:11:34.220Z,87.98
2018-01-14T18:12:34.205Z,87.69
2018-01-14T18:13:34.207Z,87.98
2018-01-14T18:14:34.208Z,87.88
2018-01-14T18:15:34.220Z,87.78
2018-01-14T18:16:34.239Z,88.26
2018-01-14T18:17:34.224Z,87.98
2018-01-14T18:18:34.221Z,88.26
2018-01-14T18:19:34.249Z,88.07
2018-01-14T18:20:34.232Z,88.26
2018-01-14T18:21:34.242Z,87.98
2018-01-14T18:22:34.247Z,87.98
2018-01-14T18:23:34.252Z,88.54
2018-01-14T18:24:34.252Z,88.54
2018-01-14T18:25:34.255Z,88.35
2018-01-14T18:26:34.261Z,88.26
2018-01-14T18:27:34.283Z,88.45
2018-01-14T18:28:34.277Z,88.45
2018-01-14T18:29:34.284Z,87.98
2018-01-14T18:30:34.278Z,88.21
2018-01-14T18:31:34.288Z,88.49
2018-01-14T18:32:34.327Z,88.59
2018-01-14T18:33:34.291Z,89.06
2018-01-14T18:34:34.300Z,88.68
2018-01-14T18:35:34.295Z,88.64
2018-01-14T18:36:34.301Z,88.49
2018-01-14T18:37:34.309Z,88.68
2018-01-14T18:38:34.325Z,89.16
2018-01-14T18:39:34.781Z,89.06
2018-01-14T18:40:34.329Z,89.06
2018-01-14T18:41:34.328Z,89.06
2018-01-14T18:42:34.337Z,88.87
2018-01-14T18:43:34.332Z,89.16
2018-01-14T18:44:34.333Z,89.35
2018-01-14T18:45:34.353Z,89.25
2018-01-14T18:46:34.355Z,89.06
2018-01-14T18:47:34.350Z,89.06
2018-01-14T18:48:34.358Z,89.35
2018-01-14T18:49:34.360Z,89.35
2018-01-14T18:50:34.366Z,89.06
2018-01-14T18:51:34.357Z,89.25
2018-01-14T18:52:34.374Z,89.54
2018-01-14T18:53:34.372Z,89.16
2018-01-14T18:54:34.385Z,89.06
2018-01-14T18:55:34.388Z,89.25
2018-01-14T18:56:34.386Z,88.68
2018-01-14T18:57:34.398Z,88.68
2018-01-14T18:58:34.397Z,89.16
2018-01-14T18:59:34.396Z,89.25
2018-01-14T19:00:34.444Z,89.06
2018-01-14T19:01:34.426Z,88.87
2018-01-14T19:02:34.410Z,89.35
2018-01-14T19:03:34.419Z,89.16
2018-01-14T19:04:34.423Z,88.78
2018-01-14T19:05:34.431Z,89.44
2018-01-14T19:06:34.430Z,89.63
2018-01-14T19:07:34.431Z,89.54
2018-01-14T19:08:34.436Z,89.44
2018-01-14T19:09:34.463Z,90.01
2018-01-14T19:10:34.450Z,89.35
2018-01-14T19:11:34.441Z,89.92
2018-01-14T19:12:34.449Z,90.20
2018-01-14T19:13:34.468Z,90.01
2018-01-14T19:14:34.464Z,89.44
2018-01-14T19:15:34.467Z,89.82
2018-01-14T19:16:34.488Z,90.30
2018-01-14T19:17:34.475Z,90.48
2018-01-14T19:18:34.481Z,90.67
2018-01-14T19:19:34.487Z,90.96
2018-01-14T19:20:34.580Z,90.77
2018-01-14T19:21:34.490Z,90.58
2018-01-14T19:22:34.495Z,90.77
2018-01-14T19:23:34.484Z,90.58
2018-01-14T19:24:34.514Z,90.96
2018-01-14T19:25:34.519Z,90.86
2018-01-14T19:26:34.505Z,90.58
2018-01-14T19:27:34.512Z,90.77
2018-01-14T19:28:34.522Z,90.58
2018-01-14T19:29:34.523Z,90.96
2018-01-14T19:30:34.564Z,91.24
2018-01-14T19:31:34.527Z,90.58
2018-01-14T19:32:34.539Z,90.86
2018-01-14T19:33:34.581Z,91.24
2018-01-14T19:34:34.546Z,90.58
2018-01-14T19:36:34.553Z,91.05
2018-01-14T19:37:55.606Z,91.34
2018-01-14T19:38:34.559Z,90.67
2018-01-14T19:39:34.565Z,91.05
2018-01-14T19:40:34.565Z,91.05
2018-01-14T19:41:34.561Z,91.15
2018-01-14T19:42:34.569Z,90.67
2018-01-14T19:43:34.583Z,91.15
2018-01-14T19:44:34.595Z,91.05
2018-01-14T19:45:34.584Z,91.34
2018-01-14T19:46:34.669Z,91.34
2018-01-14T19:47:34.608Z,91.62
2018-01-14T19:48:34.603Z,91.81
2018-01-14T19:49:34.621Z,92.00
2018-01-14T19:50:34.611Z,91.72
2018-01-14T19:51:34.594Z,92.19
2018-01-14T19:52:34.608Z,92.00
2018-01-14T19:53:34.609Z,91.81
2018-01-14T19:54:34.618Z,91.81
2018-01-14T19:55:34.637Z,91.81
2018-01-14T19:56:34.647Z,91.91
2018-01-14T19:57:34.633Z,91.91
2018-01-14T19:58:34.637Z,91.91
2018-01-14T19:59:34.627Z,91.81
2018-01-14T20:00:34.645Z,91.81
2018-01-14T20:01:34.647Z,91.91
2018-01-14T20:02:34.661Z,91.72
2018-01-14T20:03:34.664Z,91.62
2018-01-14T20:04:34.682Z,91.81
2018-01-14T20:05:34.688Z,91.81
2018-01-14T20:06:34.675Z,92.10
2018-01-14T20:07:34.660Z,91.81
2018-01-14T20:08:34.658Z,92.10
2018-01-14T20:09:34.693Z,92.00
2018-01-14T20:10:34.689Z,91.72
2018-01-14T20:11:34.685Z,91.81
2018-01-14T20:12:34.697Z,91.81
2018-01-14T20:13:34.698Z,92.19
2018-01-14T20:14:34.701Z,91.91
2018-01-14T20:15:34.719Z,91.91
2018-01-14T20:16:34.707Z,91.91
2018-01-14T20:17:34.701Z,91.91
2018-01-14T20:18:34.742Z,91.62
2018-01-14T20:19:34.713Z,91.62
2018-01-14T20:20:34.725Z,92.00
2018-01-14T20:21:34.737Z,91.72
2018-01-14T20:22:34.735Z,91.81
2018-01-14T20:23:34.733Z,91.91
2018-01-14T20:24:34.733Z,91.81
2018-01-14T20:25:34.733Z,92.66
2018-01-14T20:26:34.746Z,92.38
2018-01-14T20:27:34.830Z,92.76
2018-01-14T20:28:34.747Z,92.47
2018-01-14T20:29:34.744Z,92.29
2018-01-14T20:30:34.757Z,92.38
2018-01-14T20:31:34.774Z,92.29
2018-01-14T20:32:34.766Z,92.38
2018-01-14T20:33:34.762Z,92.29
2018-01-14T20:34:34.796Z,92.10
2018-01-14T20:35:34.768Z,92.10
2018-01-14T20:36:34.779Z,92.29
2018-01-14T20:37:34.776Z,92.05
2018-01-14T20:38:34.797Z,92.47
2018-01-14T20:39:34.783Z,92.29
2018-01-14T20:41:34.810Z,92.66
2018-01-14T20:42:34.811Z,92.43
2018-01-14T20:43:34.797Z,92.14
2018-01-14T20:44:34.814Z,92.61
2018-01-14T20:45:34.800Z,92.90
2018-01-14T20:46:34.806Z,92.80
2018-01-14T20:47:34.821Z,92.61
2018-01-14T20:48:34.818Z,92.71
2018-01-14T20:49:34.835Z,93.18
2018-01-14T20:50:34.869Z,93.09
2018-01-14T20:51:34.823Z,93.18
2018-01-14T20:52:34.864Z,93.09
2018-01-14T20:53:34.834Z,93.37
2018-01-14T20:54:34.833Z,93.47
2018-01-14T20:55:35.784Z,93.37
2018-01-14T20:56:34.848Z,93.47
2018-01-14T20:57:34.844Z,93.47
2018-01-14T20:58:34.859Z,93.47
2018-01-14T20:59:34.886Z,93.09
2018-01-14T21:00:34.867Z,94.13
2018-01-14T21:01:34.877Z,93.66
2018-01-14T21:02:34.871Z,93.56
2018-01-14T21:03:34.870Z,93.47
2018-01-14T21:04:34.870Z,93.56
2018-01-14T21:05:34.879Z,93.75
2018-01-14T21:06:34.878Z,93.85
2018-01-14T21:07:34.880Z,94.51
2018-01-14T21:08:34.921Z,94.60
2018-01-14T21:09:34.892Z,94.42
2018-01-14T21:10:34.899Z,94.70
2018-01-14T21:11:34.898Z,94.42
2018-01-14T21:12:34.898Z,94.32
2018-01-14T21:13:34.908Z,94.42
2018-01-14T21:14:34.911Z,94.42
2018-01-14T21:15:34.909Z,94.13
2018-01-14T21:16:34.908Z,94.42
2018-01-14T21:17:34.914Z,94.13
2018-01-14T21:18:34.906Z,94.13
2018-01-14T21:19:34.923Z,94.32
2018-01-14T21:20:34.933Z,93.66
2018-01-14T21:21:34.933Z,93.94
2018-01-14T21:22:34.947Z,93.66
2018-01-14T21:23:34.944Z,94.04
2018-01-14T21:24:34.938Z,93.85
2018-01-14T21:25:34.941Z,93.66
2018-01-14T21:26:34.943Z,93.66
2018-01-14T21:27:35.113Z,93.66
2018-01-14T21:28:34.961Z,93.66
2018-01-14T21:29:34.945Z,94.51
2018-01-14T21:30:34.994Z,94.51
2018-01-14T21:31:35.037Z,94.79
2018-01-14T21:32:34.990Z,94.32
2018-01-14T21:33:34.969Z,94.13
2018-01-14T21:34:34.979Z,94.51
2018-01-14T21:35:34.980Z,94.60
2018-01-14T21:36:35.090Z,94.32
2018-01-14T21:37:34.985Z,94.32
2018-01-14T21:38:34.987Z,94.23
2018-01-14T21:39:34.993Z,94.32
2018-01-14T21:40:34.996Z,94.42
2018-01-14T21:41:34.995Z,94.51
2018-01-14T21:42:35.001Z,94.32
2018-01-14T21:43:35.014Z,94.89
2018-01-14T21:44:35.001Z,94.70
2018-01-14T21:45:35.019Z,94.70
2018-01-14T21:46:35.016Z,94.89
2018-01-14T21:47:35.019Z,94.51
2018-01-14T21:48:35.011Z,94.60
2018-01-14T21:49:35.019Z,95.45
2018-01-14T21:50:35.031Z,95.17
2018-01-14T21:51:35.027Z,95.26
2018-01-14T21:52:35.032Z,95.26
2018-01-14T21:53:35.037Z,94.70
2018-01-14T21:54:35.043Z,94.60
2018-01-14T21:55:35.046Z,94.79
2018-01-14T21:56:35.046Z,94.51
2018-01-14T21:57:35.050Z,94.98
2018-01-14T21:58:35.054Z,94.42
2018-01-14T21:59:35.056Z,94.84
2018-01-14T22:00:35.061Z,94.89
2018-01-14T22:01:35.069Z,93.99
2018-01-14T22:02:35.072Z,95.07
2018-01-14T22:03:35.078Z,94.89
2018-01-14T22:04:35.080Z,94.32
2018-01-14T22:05:35.082Z,94.70
2018-01-14T22:06:35.079Z,94.51
2018-01-14T22:07:35.090Z,94.79
2018-01-14T22:08:35.084Z,94.51
2018-01-14T22:09:35.102Z,94.42
2018-01-14T22:10:35.100Z,94.51
2018-01-14T22:11:35.100Z,94.51
2018-01-14T22:12:35.113Z,94.70
2018-01-14T22:13:35.111Z,95.26
2018-01-14T22:14:35.113Z,95.26
2018-01-14T22:15:35.121Z,95.26
2018-01-14T22:16:35.120Z,94.89
2018-01-14T22:17:35.119Z,95.17
2018-01-14T22:18:35.133Z,95.07
2018-01-14T22:19:35.134Z,94.98
2018-01-14T22:20:35.136Z,95.55
2018-01-14T22:21:35.136Z,94.98
2018-01-14T22:22:35.147Z,95.26
2018-01-14T22:23:35.140Z,95.45
2018-01-14T22:24:35.158Z,95.36
2018-01-14T22:25:35.147Z,95.17
2018-01-14T22:26:35.163Z,95.17
2018-01-14T22:27:35.163Z,95.36
2018-01-14T22:28:35.166Z,94.98
2018-01-14T22:29:35.174Z,95.07
2018-01-14T22:30:35.177Z,95.36
2018-01-14T22:31:35.177Z,95.55
2018-01-14T22:32:35.200Z,95.17
2018-01-14T22:33:35.192Z,95.07
2018-01-14T22:34:35.245Z,95.45
2018-01-14T22:35:35.195Z,94.98
2018-01-14T22:36:35.200Z,95.26
2018-01-14T22:37:35.203Z,95.21
2018-01-14T22:38:35.200Z,94.60
2018-01-14T22:39:35.210Z,94.98
2018-01-14T22:40:35.213Z,95.40
2018-01-14T22:41:35.218Z,95.07
2018-01-14T22:42:35.228Z,94.51
2018-01-14T22:43:35.227Z,94.89
2018-01-14T22:44:35.238Z,95.36
2018-01-14T22:45:35.230Z,94.89
2018-01-14T22:46:35.237Z,95.21
2018-01-14T22:47:35.248Z,95.26
2018-01-14T22:48:35.251Z,95.17
2018-01-14T22:49:35.244Z,95.17
2018-01-14T22:50:35.245Z,95.26
2018-01-14T22:51:35.256Z,95.26
2018-01-14T22:52:35.259Z,94.98
2018-01-14T22:53:35.261Z,95.07
2018-01-14T22:54:35.264Z,95.17
2018-01-14T22:55:35.271Z,94.98
2018-01-14T22:56:35.271Z,95.26
2018-01-14T22:57:35.279Z,94.79
2018-01-14T22:58:35.279Z,94.98
2018-01-14T22:59:35.290Z,95.36
2018-01-14T23:00:35.285Z,95.26
2018-01-14T23:01:35.342Z,95.26
2018-01-14T23:02:35.287Z,95.26
2018-01-14T23:03:35.297Z,94.98
2018-01-14T23:04:35.292Z,95.45
2018-01-14T23:05:35.305Z,95.26
2018-01-14T23:06:35.338Z,95.07
2018-01-14T23:07:35.315Z,94.89
2018-01-14T23:08:35.320Z,95.36
2018-01-14T23:09:35.330Z,95.45
2018-01-14T23:10:35.320Z,95.69
2018-01-14T23:11:35.327Z,95.17
2018-01-14T23:12:35.330Z,95.36
2018-01-14T23:13:35.331Z,95.36
2018-01-14T23:14:35.341Z,95.45
2018-01-14T23:15:35.341Z,95.93
2018-01-14T23:16:35.345Z,96.02
2018-01-14T23:17:35.350Z,96.02
2018-01-14T23:18:35.347Z,96.02
2018-01-14T23:19:35.356Z,96.21
2018-01-14T23:20:35.362Z,96.02
2018-01-14T23:21:35.371Z,96.21
2018-01-14T23:22:35.366Z,95.93
2018-01-14T23:23:35.373Z,95.83
2018-01-14T23:24:35.369Z,95.55
2018-01-14T23:25:35.390Z,95.74
2018-01-14T23:26:35.382Z,95.64
2018-01-14T23:27:35.382Z,96.16
2018-01-14T23:28:35.389Z,96.40
2018-01-14T23:29:35.394Z,96.12
2018-01-14T23:30:35.392Z,96.21
2018-01-14T23:31:35.396Z,95.55
2018-01-14T23:32:35.398Z,95.93
2018-01-14T23:33:35.411Z,95.78
2018-01-14T23:34:35.460Z,95.50
2018-01-14T23:35:35.419Z,95.59
2018-01-14T23:36:35.409Z,95.59
2018-01-14T23:37:35.418Z,95.50
2018-01-14T23:38:35.423Z,95.50
2018-01-14T23:39:35.431Z,95.40
2018-01-14T23:40:35.429Z,95.78
2018-01-14T23:41:35.431Z,95.40
2018-01-14T23:42:35.454Z,95.69
2018-01-14T23:43:35.441Z,95.55
2018-01-14T23:44:35.439Z,96.12
2018-01-14T23:45:35.450Z,95.59
2018-01-14T23:46:35.452Z,95.55
2018-01-14T23:47:35.457Z,96.21
2018-01-14T23:48:35.469Z,95.83
2018-01-14T23:49:35.468Z,96.21
2018-01-14T23:50:35.533Z,96.21
2018-01-14T23:51:35.509Z,96.21
2018-01-14T23:52:35.523Z,96.40
2018-01-14T23:53:35.482Z,96.50
2018-01-14T23:54:35.493Z,96.73
2018-01-14T23:55:35.480Z,96.35
2018-01-14T23:56:35.497Z,96.45
2018-01-14T23:57:35.495Z,96.45
2018-01-14T23:58:35.506Z,96.45
2018-01-14T23:59:35.502Z,96.35
